Prague, Czech Republic

3:15 PM CEST on October 23, 2014 (GMT +0200)
Jenec | Change Station
CLOSE
Current Station
Personal Weather Station
Location: Jenec, Stredocesky Kraj
Elevation: 1211 ft
Nearby Weather Stations

Elev 1211 ft 50.09 °N, 14.21 °E | Updated 5 minutes ago

Mostly Cloudy
Mostly Cloudy
50.4 °F
Feels Like 50.4 °F
N
12.1
Wind Variable Wind from NNE
Gusts 22.1 mph

Today
High -- | Low -- °F
--% Chance of Precip.
Yesterday
High -- | Low -- °F
Precip. -- in
7:37 AM 5:56 PM
Waning Crescent, 0% visible
Pressure 30.09 in
Visibility 6.2 miles
Clouds Scattered Clouds 1600 ft
Mostly Cloudy 2000 ft
Dew Point 45 °F
Humidity 83%
Rainfall 0.18 in
Snow Depth Not available.
UV 1 out of 12
Pollen Not available.
Air Quality Not available.
Flu Activity Not available.
METAR LKPR 231300Z 36013KT 9999 SCT016 BKN020 10/07 Q1019 NOSIG

More Conditions Fewer Conditions

Pressure 30.09 in
Visibility 6.2 miles
Clouds Scattered Clouds 1600 ft
Mostly Cloudy 2000 ft
Dew Point 45 °F
Humidity 83%
Rainfall 0.18 in
Snow Depth Not available.
UV 1 out of 12
Pollen Not available.
Air Quality Not available.
Flu Activity Not available.
METAR LKPR 231300Z 36013KT 9999 SCT016 BKN020 10/07 Q1019 NOSIG

More Conditions Fewer Conditions

10-Day Weather Forecast

Almanac

Astronomy

Oct. 23, 2014 Rise Set
Actual Time 7:37 AM CEST 5:56 PM CEST
Civil Twilight 7:04 AM CEST 6:29 PM CEST
Nautical Twilight 6:26 AM CEST 7:07 PM CEST
Astronomical Twilight 5:49 AM CEST 7:44 PM CEST
Moon 6:56 AM CEST 5:48 PM CEST
Length of Visible Light 11h 25m
Length of Day
10h 18m
Tomorrow will be 3m 32s shorter.
Waning Crescent, 0% of the Moon is Illuminated
Today
Waning Crescent
Oct 23
New
Oct 30
First Quarter
Nov 6
Full
Nov 14
Last Quarter

Yesterday's Extremes

Country Highs Country Lows

Community

WunderPhotos

Upload Photos

1,764,231 photos uploaded!

Nearby

Snow Depth

Not available.

Earthquake Activity

City Distance Mag. Time & Date
No recent earthquake activity has been reported nearby.
Minimum magnitude displayed is 2.5.

Coastal Water Temperatures

Place Temperature
No Stations Reporting

Nearby Weather Stations